Terminal Aerodrome Forecast
Issued by NWS

Home | Current Version | Previous Version | Text Only | Print | Product List | Glossary On
Versions: 1 2 3 4 5 6 7 8 9 10 11 12 13 14 15
000
FTUS46 KMTR 211720
TAFSJC
TAF
KSJC 211720Z 2118/2218 15005KT P6SM FEW015 FEW100
     FM211930 31008KT P6SM SCT100
     FM212200 31012KT P6SM SCT100
     FM220400 30007KT P6SM FEW020 SCT100
     FM220800 16006KT P6SM BKN018
     FM221700 VRB03KT P6SM FEW020 FEW100=

USA.gov is the U.S. government's official web portal to all federal, state and local government web resources and services.